Glacier Park International Airport
KGPI : now visible

Airfield :











YOU CAN JOIN US ON...

 
LOGIN :

Register | Disclaimer

   EN    FR    IT 

 









Legend :    VFR   Marginal VFR   IFR   Intensive IFR   Very Intensive IFR
Visi :
Ceiling :
>= 8 km
>= 3000ft
5 to 8 km
1000 to 3000 ft
1500m to 5 km
500 to 1000 ft
800 to 1500m
200 to 500 ft
< 800m
< 200 ft
Symbols :   Thunderstorms  Fog  Heavy snow  Heavy precipitations  Wind > 20 kt






- Airport Elevation : 2977 ft
- IATA code : FCA


KGPI - Glacier Park International

CURRENT METAR :
  • 080655Z 17006KT 10SM OVC036 04/02 A2967 RMK AO2 RAE15 SLP063 P0000 T00440022 400441017

EXPIRED METARs :
  • 080555Z 00000KT 9SM -RA BKN036 OVC045 02/01 A2968 RMK AO2 RAB08E30B52 SLP071 P0000 60000 T00220011 10033 20017 56011
  • 080455Z 21003KT 10SM OVC047 02/01 A2969 RMK AO2 SLP073 T00220011

TAF KGPI
Valid from the 08 at 06:00 until the 09 at 06:00 UTC


080540Z 0806/0906 21003KT P6SM -SHRA OVC045
FM080700 19007KT 4SM -RA BR SCT010 OVC035
FM081200 02010KT 4SM -SNRA OVC015
FM081500 02012G25KT 3SM -SN OVC025
TEMPO 0815/0817 1SM -SN SCT008 OVC015
FM081900 32010KT P6SM VCSH SCT035 OVC045



MET'MAP, your aeronautical weather chart ! - Copyright ORBIFLY December 2007 - Disclaimer

ORBIFLY MET'MAP TEAM :

Programming & Development : Alexandra Zaïnal
Concept & original design : Baudouin d'Aumeries
Assistance for programming : Marc-Olivier Méhu
Technical & hardware support : Manuel Goepfert

Contact : metmap@orbifly.com




SOURCES & CREDITS :

   NOAA       Earth
Advisory